Time;durP1;ratioP1;P1;durP2;ratioP2;P2;SDS_P1;SDS_P2;PMS_P1;PMS_P2;Temp;Humidity;BMP_temperature;BMP_pressure;BME280_temperature;BME280_humidity;BME280_pressure;Samples;Min_cycle;Max_cycle;Signal;HPM_P1;HPM_P2
2023/02/12 00:01:20;;;;;;;33.03;17.60;;;8.00;99.90;;;;;;5053029;28;20264;-65
2023/02/12 00:03:46;;;;;;;32.17;19.57;;;8.00;99.90;;;;;;5053980;28;20201;-65
2023/02/12 00:06:12;;;;;;;28.43;18.33;;;8.00;99.90;;;;;;5054208;28;20637;-65
2023/02/12 00:08:38;;;;;;;30.30;20.43;;;8.00;99.90;;;;;;5053844;28;20257;-65
2023/02/12 00:11:07;;;;;;;33.10;19.33;;;8.00;99.90;;;;;;5053641;28;20182;-64
2023/02/12 00:13:33;;;;;;;35.87;21.27;;;8.00;99.90;;;;;;5053751;28;20194;-65
2023/02/12 00:16:02;;;;;;;33.67;19.67;;;8.00;99.90;;;;;;5053964;28;20250;-65
2023/02/12 00:18:28;;;;;;;25.70;17.80;;;8.00;99.90;;;;;;5053691;28;20532;-65
2023/02/12 00:20:53;;;;;;;37.43;20.70;;;8.00;99.90;;;;;;5052761;28;20171;-65
2023/02/12 00:23:19;;;;;;;38.73;18.93;;;8.00;99.90;;;;;;5053687;28;20758;-65
2023/02/12 00:25:44;;;;;;;33.60;21.07;;;8.00;99.90;;;;;;5053601;28;20182;-64
2023/02/12 00:28:10;;;;;;;26.93;19.43;;;8.00;99.90;;;;;;5053750;28;20410;-64
2023/02/12 00:30:35;;;;;;;27.00;17.53;;;8.10;99.90;;;;;;5053021;28;20205;-65
2023/02/12 00:33:01;;;;;;;29.10;19.80;;;8.00;99.90;;;;;;5053513;28;20194;-65
2023/02/12 00:35:27;;;;;;;33.53;20.33;;;8.10;99.90;;;;;;5053517;28;20220;-64
2023/02/12 00:37:52;;;;;;;28.97;19.33;;;8.10;99.90;;;;;;5053439;28;20183;-65
2023/02/12 00:40:18;;;;;;;31.47;20.10;;;8.10;99.90;;;;;;5053190;28;20178;-64
2023/02/12 00:42:44;;;;;;;29.07;19.50;;;8.10;99.90;;;;;;5052986;28;20182;-65
2023/02/12 00:45:09;;;;;;;28.33;18.43;;;8.00;99.90;;;;;;5053325;28;20179;-64
2023/02/12 00:47:35;;;;;;;30.40;19.03;;;8.00;99.90;;;;;;5053201;28;20267;-66
2023/02/12 00:50:00;;;;;;;29.37;18.13;;;8.10;99.90;;;;;;5052858;28;20195;-65
2023/02/12 00:52:26;;;;;;;29.93;17.87;;;8.10;99.90;;;;;;5053112;28;20179;-65
2023/02/12 00:54:51;;;;;;;25.80;17.90;;;8.00;99.90;;;;;;5053290;28;20222;-65
2023/02/12 00:57:17;;;;;;;27.03;18.67;;;7.90;99.90;;;;;;5053094;28;20175;-65
2023/02/12 00:59:43;;;;;;;32.17;20.30;;;7.90;99.90;;;;;;5052047;28;20182;-64
2023/02/12 01:02:08;;;;;;;29.43;18.87;;;7.90;99.90;;;;;;5053234;28;20187;-65
2023/02/12 01:04:34;;;;;;;29.87;20.10;;;7.90;99.90;;;;;;5052680;28;20734;-65
2023/02/12 01:06:59;;;;;;;30.67;19.17;;;7.90;99.90;;;;;;5052972;28;20177;-64
2023/02/12 01:09:25;;;;;;;31.23;20.13;;;7.90;99.90;;;;;;5052466;28;20194;-66
2023/02/12 01:11:51;;;;;;;31.20;18.80;;;8.00;99.90;;;;;;5052858;28;20279;-65
2023/02/12 01:14:16;;;;;;;26.83;20.30;;;8.00;99.90;;;;;;5052730;28;20202;-65
2023/02/12 01:16:42;;;;;;;31.03;20.10;;;8.00;99.90;;;;;;5052790;28;20178;-65
2023/02/12 01:19:09;;;;;;;26.17;18.10;;;7.90;99.90;;;;;;5052526;28;20217;-65
2023/02/12 01:21:35;;;;;;;28.83;19.97;;;7.90;99.90;;;;;;5052414;28;20179;-65
2023/02/12 01:24:01;;;;;;;39.57;21.17;;;7.90;99.90;;;;;;5052615;28;20198;-66
2023/02/12 01:26:28;;;;;;;36.67;20.97;;;7.90;99.90;;;;;;5052436;28;20170;-66
2023/02/12 01:28:56;;;;;;;31.97;21.43;;;7.90;99.90;;;;;;5052416;28;20241;-65
2023/02/12 01:31:24;;;;;;;33.70;21.53;;;7.90;99.90;;;;;;5052211;28;20177;-66
2023/02/12 01:33:53;;;;;;;32.47;20.87;;;7.90;99.90;;;;;;5052238;28;20195;-66
2023/02/12 01:36:19;;;;;;;38.33;20.90;;;7.90;99.90;;;;;;5052404;28;20321;-66
2023/02/12 01:38:44;;;;;;;32.20;19.53;;;7.90;99.90;;;;;;5052032;28;20249;-65
2023/02/12 01:41:17;;;;;;;31.03;20.23;;;8.00;99.90;;;;;;5052266;28;20551;-66
2023/02/12 01:43:43;;;;;;;35.83;22.57;;;8.00;99.90;;;;;;5052514;28;20276;-65
2023/02/12 01:46:11;;;;;;;35.27;18.83;;;7.90;99.90;;;;;;5052344;28;20453;-65
2023/02/12 01:48:41;;;;;;;36.03;21.40;;;7.90;99.90;;;;;;5051849;28;20225;-65
2023/02/12 01:51:09;;;;;;;37.40;22.77;;;7.90;99.90;;;;;;5051945;28;20514;-64
2023/02/12 01:53:41;;;;;;;30.90;19.70;;;7.90;99.90;;;;;;5051861;28;20641;-64
2023/02/12 01:56:08;;;;;;;33.63;20.10;;;7.90;99.90;;;;;;5052102;28;20202;-64
2023/02/12 01:58:38;;;;;;;39.90;20.67;;;7.90;99.90;;;;;;5051677;28;20250;-64
2023/02/12 02:01:06;;;;;;;30.67;18.90;;;7.90;99.90;;;;;;5051306;28;20174;-64
2023/02/12 02:03:34;;;;;;;28.63;19.47;;;7.90;99.90;;;;;;5051668;28;20202;-64
2023/02/12 02:06:14;;;;;;;31.83;19.97;;;7.90;99.90;;;;;;5051885;28;20178;-64
2023/02/12 02:08:41;;;;;;;35.77;20.23;;;7.90;99.90;;;;;;5051647;28;20185;-64
2023/02/12 02:14:31;;;;;;;35.90;20.63;;;7.90;99.90;;;;;;5051548;28;20254;-64
2023/02/12 02:16:42;;;;;;;33.67;19.73;;;7.90;99.90;;;;;;5051685;28;20232;-65
2023/02/12 02:19:25;;;;;;;39.33;21.63;;;7.90;99.90;;;;;;5051544;28;20186;-65
2023/02/12 02:22:11;;;;;;;37.07;21.87;;;7.90;99.90;;;;;;5051648;28;20182;-65
2023/02/12 02:24:56;;;;;;;33.30;19.10;;;8.00;99.90;;;;;;5049905;28;20218;-65
2023/02/12 02:27:51;;;;;;;36.10;19.97;;;8.00;99.90;;;;;;5051754;28;20256;-65
2023/02/12 02:30:47;;;;;;;29.07;19.43;;;8.00;99.90;;;;;;5051222;28;20206;-64
2023/02/12 02:33:31;;;;;;;30.60;19.70;;;8.00;99.90;;;;;;5051432;28;20675;-65
2023/02/12 02:36:04;;;;;;;28.57;20.00;;;8.00;99.90;;;;;;5051513;28;20203;-65
2023/02/12 02:38:43;;;;;;;30.60;21.10;;;8.00;99.90;;;;;;5051419;28;20261;-65
2023/02/12 02:41:18;;;;;;;28.53;19.37;;;8.00;99.90;;;;;;5051225;28;20253;-65
2023/02/12 02:43:49;;;;;;;28.60;20.43;;;8.00;99.90;;;;;;5050704;28;20218;-65
2023/02/12 02:46:31;;;;;;;33.07;19.07;;;8.00;99.90;;;;;;5051508;28;20209;-64
2023/02/12 02:49:03;;;;;;;34.40;17.07;;;7.90;99.90;;;;;;5051302;28;20210;-65
2023/02/12 02:51:33;;;;;;;34.63;19.37;;;7.90;99.90;;;;;;5051000;28;20548;-65
2023/02/12 02:54:22;;;;;;;33.27;20.13;;;7.90;99.90;;;;;;5051307;28;20190;-65
2023/02/12 02:56:52;;;;;;;35.93;20.33;;;7.90;99.90;;;;;;5051412;28;20178;-64
2023/02/12 02:59:24;;;;;;;33.83;21.77;;;7.90;99.90;;;;;;5051013;28;20171;-65
2023/02/12 03:02:00;;;;;;;26.40;18.50;;;7.90;99.90;;;;;;5050596;28;20186;-64
2023/02/12 03:04:51;;;;;;;33.13;20.67;;;8.00;99.90;;;;;;5051092;28;20194;-65
2023/02/12 03:07:25;;;;;;;35.93;20.83;;;7.90;99.90;;;;;;5050627;28;20601;-66
2023/02/12 03:10:19;;;;;;;33.53;21.87;;;7.90;99.90;;;;;;5050691;28;20679;-65
2023/02/12 03:12:50;;;;;;;33.53;21.70;;;7.90;99.90;;;;;;5050405;28;20186;-65
2023/02/12 03:15:29;;;;;;;38.53;20.47;;;7.90;99.90;;;;;;5051091;28;20171;-66
2023/02/12 03:17:57;;;;;;;33.13;19.40;;;7.90;99.90;;;;;;5051003;28;20265;-66
2023/02/12 03:20:29;;;;;;;31.80;19.27;;;7.90;99.90;;;;;;5050492;28;20179;-65
2023/02/12 03:23:23;;;;;;;32.10;19.43;;;7.90;99.90;;;;;;5050680;28;20222;-65
2023/02/12 03:25:55;;;;;;;36.30;19.87;;;7.90;99.90;;;;;;5050728;28;20175;-66
2023/02/12 03:28:33;;;;;;;34.43;20.03;;;7.80;99.90;;;;;;5050705;28;20247;-66
2023/02/12 03:31:08;;;;;;;31.53;19.63;;;7.80;99.90;;;;;;5050394;28;20171;-65
2023/02/12 03:33:36;;;;;;;39.70;20.77;;;7.80;99.90;;;;;;5050457;28;20277;-65
2023/02/12 03:36:28;;;;;;;37.83;20.73;;;7.80;99.90;;;;;;5050145;28;20735;-64
2023/02/12 03:39:04;;;;;;;37.03;19.77;;;7.80;99.90;;;;;;5050045;28;20667;-64
2023/02/12 03:41:53;;;;;;;33.33;18.73;;;7.70;99.90;;;;;;5049902;28;20197;-64
2023/02/12 03:44:47;;;;;;;35.50;20.37;;;7.80;99.90;;;;;;5049846;28;20211;-65
2023/02/12 03:47:12;;;;;;;29.63;18.33;;;7.70;99.90;;;;;;5050105;28;20224;-65
2023/02/12 03:49:48;;;;;;;33.80;20.10;;;7.70;99.90;;;;;;5049488;28;20672;-63
2023/02/12 03:52:14;;;;;;;25.87;18.73;;;7.70;99.90;;;;;;5050329;28;20779;-66
2023/02/12 03:54:39;;;;;;;34.60;20.23;;;7.60;99.90;;;;;;5050842;28;20274;-66
2023/02/12 03:57:12;;;;;;;35.40;21.70;;;7.70;99.90;;;;;;5054245;28;20206;-65
2023/02/12 03:59:39;;;;;;;38.03;21.17;;;7.70;99.90;;;;;;5053724;28;20210;-64
2023/02/12 04:02:05;;;;;;;40.63;21.03;;;7.70;99.90;;;;;;5053629;28;20205;-64
2023/02/12 04:04:31;;;;;;;31.40;19.87;;;7.70;99.90;;;;;;5053844;28;20233;-65
2023/02/12 04:06:57;;;;;;;35.87;20.03;;;7.70;99.90;;;;;;5054041;28;20198;-65
2023/02/12 04:09:25;;;;;;;34.50;20.70;;;7.70;99.90;;;;;;5053640;28;20209;-65
2023/02/12 04:12:09;;;;;;;34.67;21.17;;;7.80;99.90;;;;;;5053891;28;20171;-64
2023/02/12 04:15:03;;;;;;;26.83;17.53;;;7.80;99.90;;;;;;5053618;28;20191;-64
2023/02/12 04:17:52;;;;;;;40.43;21.23;;;7.80;99.90;;;;;;5053859;28;20198;-65
2023/02/12 04:20:37;;;;;;;41.77;19.63;;;7.80;99.90;;;;;;5053465;28;20183;-65
2023/02/12 04:23:20;;;;;;;33.40;20.30;;;7.80;99.90;;;;;;5053996;28;20676;-65
2023/02/12 04:26:03;;;;;;;35.67;19.27;;;7.80;99.90;;;;;;5053911;28;20701;-65
2023/02/12 04:28:41;;;;;;;36.87;20.67;;;7.80;99.90;;;;;;5053560;28;20166;-65
2023/02/12 04:31:30;;;;;;;34.27;19.73;;;7.80;99.90;;;;;;5053459;28;20174;-64
2023/02/12 04:34:14;;;;;;;32.87;19.97;;;7.80;99.90;;;;;;5053012;28;20206;-65
2023/02/12 04:36:49;;;;;;;29.53;19.87;;;7.70;99.90;;;;;;5053455;28;20206;-64
2023/02/12 04:39:20;;;;;;;36.03;19.13;;;7.70;99.90;;;;;;5053242;28;20265;-64
2023/02/12 04:41:45;;;;;;;43.60;21.03;;;7.70;99.90;;;;;;5053542;28;20221;-64
2023/02/12 04:44:16;;;;;;;34.03;19.40;;;7.70;99.90;;;;;;5053157;28;20258;-65
2023/02/12 04:46:42;;;;;;;34.20;21.03;;;7.70;99.90;;;;;;5053078;28;20204;-65
2023/02/12 04:49:13;;;;;;;29.03;19.27;;;7.80;99.90;;;;;;5052881;28;20575;-65
2023/02/12 04:51:38;;;;;;;32.33;20.73;;;7.80;99.90;;;;;;5052927;28;20269;-65
2023/02/12 04:54:04;;;;;;;44.17;20.97;;;7.80;99.90;;;;;;5053092;28;20588;-65
2023/02/12 04:56:29;;;;;;;40.70;21.30;;;7.80;99.90;;;;;;5053199;28;20175;-65
2023/02/12 04:58:56;;;;;;;29.60;19.87;;;7.80;99.90;;;;;;5052934;28;20174;-66
2023/02/12 05:01:22;;;;;;;36.67;20.23;;;7.80;99.90;;;;;;5052226;28;20639;-66
2023/02/12 05:03:48;;;;;;;40.73;21.20;;;7.80;99.90;;;;;;5053051;28;20201;-66
2023/02/12 05:06:13;;;;;;;28.70;19.40;;;7.80;99.90;;;;;;5051429;28;20266;-66
2023/02/12 05:08:39;;;;;;;34.97;19.30;;;7.80;99.90;;;;;;5052565;28;20175;-64
2023/02/12 05:11:07;;;;;;;32.30;18.80;;;7.80;99.90;;;;;;5052551;28;20703;-65
2023/02/12 05:13:33;;;;;;;38.23;20.97;;;7.70;99.90;;;;;;5052705;28;20674;-65
2023/02/12 05:15:59;;;;;;;33.20;20.43;;;7.70;99.90;;;;;;5051344;28;20186;-65
2023/02/12 05:18:25;;;;;;;37.20;21.90;;;7.70;99.90;;;;;;5052565;28;20194;-66
2023/02/12 05:20:58;;;;;;;31.27;19.37;;;7.70;99.90;;;;;;5051885;28;20178;-65
2023/02/12 05:23:32;;;;;;;29.77;18.57;;;7.60;99.90;;;;;;5052260;28;20587;-66
2023/02/12 05:25:59;;;;;;;30.60;20.43;;;7.70;99.90;;;;;;5052638;28;20209;-66
2023/02/12 05:28:26;;;;;;;31.70;19.93;;;7.60;99.90;;;;;;5052397;28;20175;-65
2023/02/12 05:30:51;;;;;;;38.33;20.63;;;7.60;99.90;;;;;;5051840;28;20262;-65
2023/02/12 05:33:17;;;;;;;41.20;20.57;;;7.60;99.90;;;;;;5052321;28;20198;-65
2023/02/12 05:35:42;;;;;;;37.17;21.40;;;7.60;99.90;;;;;;5052281;28;20210;-65
2023/02/12 05:38:08;;;;;;;38.33;20.37;;;7.60;99.90;;;;;;5052293;28;20178;-66
2023/02/12 05:40:34;;;;;;;31.10;21.47;;;7.60;99.90;;;;;;5050556;28;20189;-66
2023/02/12 05:43:00;;;;;;;33.77;22.53;;;7.60;99.90;;;;;;5051931;28;20301;-65
2023/02/12 05:45:28;;;;;;;35.70;20.90;;;7.60;99.90;;;;;;5052390;28;20261;-65
2023/02/12 05:47:54;;;;;;;31.07;19.97;;;7.70;99.90;;;;;;5052050;28;20198;-66
2023/02/12 05:50:20;;;;;;;32.13;19.83;;;7.60;99.90;;;;;;5051727;28;20248;-65
2023/02/12 05:52:45;;;;;;;32.47;20.00;;;7.60;99.90;;;;;;5051691;28;20175;-65
2023/02/12 05:55:11;;;;;;;30.83;17.63;;;7.60;99.90;;;;;;5052045;28;20550;-65
2023/02/12 05:57:36;;;;;;;23.27;17.03;;;7.60;99.90;;;;;;5052105;28;20258;-66
2023/02/12 06:00:05;;;;;;;33.73;18.67;;;7.60;99.90;;;;;;5051035;28;20179;-65
2023/02/12 06:02:33;;;;;;;33.63;20.77;;;7.50;99.90;;;;;;5051625;28;20201;-65
2023/02/12 06:04:58;;;;;;;38.57;20.30;;;7.50;99.90;;;;;;5051777;28;20217;-65
2023/02/12 06:07:24;;;;;;;32.27;19.90;;;7.50;99.90;;;;;;5052068;28;20629;-65
2023/02/12 06:09:50;;;;;;;23.90;17.90;;;7.50;99.90;;;;;;5051471;28;20683;-65
2023/02/12 06:12:15;;;;;;;33.03;20.60;;;7.50;99.90;;;;;;5051751;28;20202;-65
2023/02/12 06:14:41;;;;;;;35.50;19.70;;;7.40;99.90;;;;;;5051494;28;20734;-65
2023/02/12 06:17:07;;;;;;;27.47;19.70;;;7.40;99.90;;;;;;5051192;28;20178;-64
2023/02/12 06:19:33;;;;;;;30.63;20.80;;;7.40;99.90;;;;;;5051135;28;20228;-64
2023/02/12 06:21:58;;;;;;;34.97;19.73;;;7.30;99.90;;;;;;5051700;28;20550;-64
2023/02/12 06:24:24;;;;;;;32.47;19.90;;;7.40;99.90;;;;;;5051388;28;20194;-65
2023/02/12 06:26:50;;;;;;;36.33;20.57;;;7.30;99.90;;;;;;5050923;28;20182;-64
2023/02/12 06:29:17;;;;;;;27.53;18.90;;;7.30;99.90;;;;;;5051191;28;20202;-64
2023/02/12 06:31:44;;;;;;;39.57;19.20;;;7.40;99.90;;;;;;5051281;28;20571;-65
2023/02/12 06:34:11;;;;;;;30.73;18.97;;;7.40;99.90;;;;;;5051441;28;20587;-65
2023/02/12 06:36:37;;;;;;;32.13;21.70;;;7.40;99.90;;;;;;5051282;28;20175;-64
2023/02/12 06:39:04;;;;;;;36.53;19.87;;;7.40;99.90;;;;;;5051350;28;20179;-65
2023/02/12 06:41:29;;;;;;;50.77;22.80;;;7.50;99.90;;;;;;5051188;28;20258;-65
2023/02/12 06:43:55;;;;;;;35.33;21.07;;;7.50;99.90;;;;;;5051211;28;20771;-65
2023/02/12 06:46:21;;;;;;;37.40;20.50;;;7.50;99.90;;;;;;5051300;28;20178;-65
2023/02/12 06:48:47;;;;;;;39.73;20.60;;;7.50;99.90;;;;;;5051006;28;20187;-65
2023/02/12 06:51:16;;;;;;;28.33;18.30;;;7.50;99.90;;;;;;5049713;28;20190;-65
2023/02/12 06:53:42;;;;;;;35.20;18.93;;;7.50;99.90;;;;;;5050802;28;20205;-65
2023/02/12 06:56:11;;;;;;;39.10;21.13;;;7.40;99.90;;;;;;5051136;28;20178;-65
2023/02/12 06:58:39;;;;;;;44.77;20.63;;;7.50;99.90;;;;;;5050978;28;20628;-65
2023/02/12 07:01:17;;;;;;;34.97;19.93;;;7.60;99.90;;;;;;5050184;28;20171;-65
2023/02/12 07:03:55;;;;;;;39.20;20.83;;;7.60;99.90;;;;;;5051141;28;20609;-64
2023/02/12 07:06:23;;;;;;;33.23;19.83;;;7.60;99.90;;;;;;5051339;28;20170;-65
2023/02/12 07:08:48;;;;;;;36.73;21.90;;;7.60;99.90;;;;;;5050602;28;20723;-65
2023/02/12 07:11:14;;;;;;;28.77;19.47;;;7.60;99.90;;;;;;5051427;28;20171;-64
2023/02/12 07:13:41;;;;;;;37.07;20.13;;;7.50;99.90;;;;;;5051356;28;20285;-64
2023/02/12 07:16:10;;;;;;;37.50;20.73;;;7.50;99.90;;;;;;5051389;28;20179;-65
2023/02/12 07:18:36;;;;;;;30.73;19.20;;;7.50;99.90;;;;;;5050776;28;20179;-65
2023/02/12 07:21:04;;;;;;;31.80;20.13;;;7.40;99.90;;;;;;5050470;28;20266;-66
2023/02/12 07:23:31;;;;;;;32.83;20.00;;;7.40;99.90;;;;;;5050769;28;20199;-65
2023/02/12 07:25:58;;;;;;;35.43;20.27;;;7.40;99.90;;;;;;5050925;28;20175;-66
2023/02/12 07:28:24;;;;;;;28.73;19.70;;;7.40;99.90;;;;;;5050981;28;20185;-64
2023/02/12 07:30:50;;;;;;;34.63;21.83;;;7.50;99.90;;;;;;5053943;28;20210;-64
2023/02/12 07:33:15;;;;;;;36.87;20.23;;;7.50;99.90;;;;;;5054484;28;20244;-65
2023/02/12 07:35:41;;;;;;;48.63;25.03;;;7.60;99.90;;;;;;5054386;28;20202;-65
2023/02/12 07:38:06;;;;;;;43.40;25.13;;;7.60;99.90;;;;;;5054572;28;20174;-64
2023/02/12 07:40:32;;;;;;;44.80;22.03;;;7.70;99.90;;;;;;5053834;28;20175;-64
2023/02/12 07:42:57;;;;;;;41.10;22.33;;;7.70;99.90;;;;;;5054313;28;20614;-64
2023/02/12 07:45:23;;;;;;;35.97;21.63;;;7.70;99.90;;;;;;5054018;28;20182;-64
2023/02/12 07:47:49;;;;;;;33.80;20.57;;;7.70;99.90;;;;;;5051563;28;20265;-64
2023/02/12 07:50:15;;;;;;;42.67;22.17;;;7.80;99.90;;;;;;5053642;28;20206;-64
2023/02/12 07:52:41;;;;;;;34.70;20.93;;;7.90;99.90;;;;;;5054065;28;20167;-65
2023/02/12 07:55:07;;;;;;;57.90;28.40;;;8.00;99.90;;;;;;5054145;28;20574;-65
2023/02/12 07:57:34;;;;;;;46.93;23.60;;;8.10;99.90;;;;;;5054133;28;20282;-64
2023/02/12 07:59:59;;;;;;;39.53;21.73;;;8.10;99.90;;;;;;5053232;28;20178;-64
2023/02/12 08:02:25;;;;;;;64.30;33.00;;;8.20;99.90;;;;;;5054318;28;20183;-64
2023/02/12 08:04:57;;;;;;;63.50;31.57;;;8.20;99.90;;;;;;5053826;28;20298;-64
2023/02/12 08:07:24;;;;;;;39.50;24.90;;;8.30;99.90;;;;;;5054041;28;20182;-65
2023/02/12 08:09:49;;;;;;;45.93;22.60;;;8.40;99.90;;;;;;5053515;28;20206;-65
2023/02/12 08:12:15;;;;;;;25.00;19.77;;;8.40;99.90;;;;;;5053928;28;20179;-65
2023/02/12 08:14:41;;;;;;;32.17;20.57;;;8.40;78.80;;;;;;5053632;28;20233;-65
2023/02/12 08:17:07;;;;;;;39.53;22.03;;;8.50;69.70;;;;;;5052476;28;20210;-65
2023/02/12 08:19:33;;;;;;;34.33;20.20;;;8.50;44.30;;;;;;5052495;28;20205;-65
2023/02/12 08:22:01;;;;;;;33.90;21.03;;;8.60;36.30;;;;;;5053800;28;20257;-65
2023/02/12 08:24:26;;;;;;;32.57;22.00;;;8.70;28.90;;;;;;5053812;28;20218;-65
2023/02/12 08:26:52;;;;;;;27.90;21.03;;;8.70;19.60;;;;;;5053680;28;20631;-65
2023/02/12 08:29:20;;;;;;;37.30;21.90;;;8.80;19.10;;;;;;5053423;28;20210;-65
2023/02/12 08:31:48;;;;;;;39.13;22.63;;;8.90;21.30;;;;;;5053725;28;20179;-65
2023/02/12 08:34:20;;;;;;;30.83;21.77;;;9.10;17.20;;;;;;5053660;28;20245;-64
2023/02/12 08:36:47;;;;;;;32.80;20.73;;;9.20;1.00;;;;;;5053425;28;20178;-64
2023/02/12 08:39:13;;;;;;;33.87;20.60;;;9.30;1.00;;;;;;5053234;28;20182;-64
2023/02/12 08:41:41;;;;;;;34.87;22.97;;;9.30;1.00;;;;;;5052810;28;20186;-64
2023/02/12 08:44:07;;;;;;;32.97;23.87;;;9.30;1.00;;;;;;5053340;28;20298;-65
2023/02/12 08:46:35;;;;;;;30.43;20.97;;;9.40;1.00;;;;;;5053328;28;20175;-65
2023/02/12 08:49:03;;;;;;;32.37;20.43;;;9.50;1.00;;;;;;5050904;28;20182;-65
2023/02/12 08:51:37;;;;;;;31.80;20.77;;;9.60;1.00;;;;;;5053300;28;20659;-65
2023/02/12 08:54:05;;;;;;;31.07;18.30;;;9.70;1.00;;;;;;5053313;28;20663;-64
2023/02/12 08:56:33;;;;;;;29.43;18.63;;;9.60;1.00;;;;;;5053340;28;20547;-64
2023/02/12 08:59:00;;;;;;;29.17;19.37;;;9.70;1.00;;;;;;5053011;28;20178;-65
2023/02/12 09:01:28;;;;;;;31.40;19.20;;;9.70;1.00;;;;;;5052104;28;20175;-65
2023/02/12 09:03:55;;;;;;;36.27;19.63;;;9.70;1.00;;;;;;5053257;28;20281;-65
2023/02/12 09:06:22;;;;;;;28.30;18.70;;;9.70;1.00;;;;;;5053191;28;20636;-65
2023/02/12 09:08:50;;;;;;;29.53;18.90;;;9.80;1.00;;;;;;5052835;28;20175;-65
2023/02/12 09:11:25;;;;;;;29.63;20.13;;;9.90;1.00;;;;;;5052790;28;20175;-65
2023/02/12 09:13:51;;;;;;;33.83;20.67;;;10.00;1.00;;;;;;5052868;28;20561;-65
2023/02/12 09:16:17;;;;;;;29.70;18.43;;;10.00;1.00;;;;;;5052894;28;20548;-65
2023/02/12 09:18:44;;;;;;;33.70;20.63;;;10.00;99.90;;;;;;5052880;28;20679;-64
2023/02/12 09:21:15;;;;;;;32.70;20.23;;;10.00;1.00;;;;;;5049980;28;20229;-64
2023/02/12 09:23:42;;;;;;;33.00;19.90;;;10.10;99.90;;;;;;5052609;28;20273;-65
2023/02/12 09:26:09;;;;;;;27.93;18.17;;;10.30;99.90;;;;;;5052741;28;20175;-65
2023/02/12 09:28:36;;;;;;;36.73;20.53;;;10.40;99.90;;;;;;5052449;28;20174;-65
2023/02/12 09:31:05;;;;;;;31.13;20.80;;;10.50;34.50;;;;;;5052138;28;20209;-65
2023/02/12 09:33:31;;;;;;;34.50;21.23;;;10.50;1.00;;;;;;5052416;28;20179;-65
2023/02/12 09:36:04;;;;;;;36.63;20.93;;;10.70;1.00;;;;;;5052575;28;20710;-65
2023/02/12 09:38:29;;;;;;;34.17;19.63;;;10.80;1.00;;;;;;5052673;28;20186;-65
2023/02/12 09:41:04;;;;;;;33.37;21.53;;;10.90;99.90;;;;;;5051981;28;20612;-65
2023/02/12 09:44:04;;;;;;;36.67;21.47;;;11.00;1.00;;;;;;5052485;28;20714;-65
2023/02/12 09:46:45;;;;;;;33.67;20.37;;;11.10;99.90;;;;;;5052307;28;20175;-65
2023/02/12 09:50:08;;;;;;;36.00;19.40;;;11.20;1.00;;;;;;5051845;28;20312;-65
2023/02/12 09:52:34;;;;;;;24.40;17.07;;;11.30;99.90;;;;;;5046526;28;20179;-65
2023/02/12 09:55:00;;;;;;;30.80;18.23;;;11.40;1.00;;;;;;5049688;28;20193;-65
2023/02/12 09:57:36;;;;;;;35.40;18.13;;;11.50;1.00;;;;;;5050544;28;20179;-65
2023/02/12 10:00:08;;;;;;;31.00;19.63;;;11.50;99.90;;;;;;5051706;28;20234;-65
2023/02/12 10:02:38;;;;;;;36.57;19.43;;;11.40;99.90;;;;;;5051929;28;20291;-65
2023/02/12 10:05:16;;;;;;;25.83;17.47;;;11.50;1.00;;;;;;5051907;28;20171;-65
2023/02/12 10:07:42;;;;;;;31.93;18.37;;;11.60;1.00;;;;;;5050552;28;20171;-65
2023/02/12 10:10:32;;;;;;;35.97;19.93;;;11.60;99.90;;;;;;5051607;28;20217;-65
2023/02/12 10:13:06;;;;;;;32.03;19.73;;;11.60;99.90;;;;;;5051766;28;20238;-65
2023/02/12 10:15:53;;;;;;;28.40;18.10;;;11.70;99.90;;;;;;5051832;28;20710;-65
2023/02/12 10:18:48;;;;;;;31.97;17.63;;;11.70;1.00;;;;;;5051823;28;20171;-65
2023/02/12 10:21:30;;;;;;;24.33;17.57;;;11.80;99.90;;;;;;5051461;28;20170;-65
2023/02/12 10:24:01;;;;;;;25.03;18.33;;;11.80;99.90;;;;;;5048968;28;20201;-65
2023/02/12 10:26:35;;;;;;;28.90;18.50;;;11.80;42.90;;;;;;5047480;28;20644;-65
2023/02/12 10:29:15;;;;;;;26.43;18.77;;;11.90;42.60;;;;;;5031632;28;20270;-65
2023/02/12 10:31:44;;;;;;;28.63;18.00;;;12.00;1.00;;;;;;5040548;28;20565;-65
2023/02/12 10:34:21;;;;;;;24.47;18.70;;;12.00;1.00;;;;;;5051195;28;20197;-65
2023/02/12 10:36:48;;;;;;;27.33;19.00;;;12.10;17.10;;;;;;5051617;28;20182;-65
2023/02/12 10:39:32;;;;;;;29.50;18.40;;;12.20;1.00;;;;;;5051269;28;20183;-65
2023/02/12 10:42:18;;;;;;;29.03;18.40;;;12.30;99.90;;;;;;5051233;28;20903;-65
2023/02/12 10:44:44;;;;;;;26.27;17.20;;;12.30;99.90;;;;;;5051356;28;20297;-65
2023/02/12 10:47:18;;;;;;;28.23;18.13;;;12.30;99.90;;;;;;5051104;28;20189;-65
2023/02/12 10:49:45;;;;;;;26.40;17.13;;;12.30;99.90;;;;;;5050992;28;20233;-65
2023/02/12 10:52:31;;;;;;;28.10;17.80;;;12.40;99.90;;;;;;5051098;28;20198;-65
2023/02/12 10:54:57;;;;;;;34.63;18.67;;;12.40;99.90;;;;;;5050571;28;20194;-65
2023/02/12 10:57:25;;;;;;;30.10;18.53;;;12.40;99.90;;;;;;5051275;28;20234;-65
2023/02/12 10:59:53;;;;;;;27.63;18.37;;;12.30;99.90;;;;;;5050203;28;20198;-65
2023/02/12 11:02:27;;;;;;;25.77;16.53;;;12.30;99.90;;;;;;5051195;28;20548;-65
2023/02/12 11:04:54;;;;;;;29.37;17.30;;;12.20;99.90;;;;;;5053875;28;20205;-65
2023/02/12 11:07:21;;;;;;;29.20;18.80;;;12.30;99.90;;;;;;5055202;28;20278;-65
2023/02/12 11:09:49;;;;;;;29.23;18.77;;;12.20;99.90;;;;;;5055054;28;20605;-65
2023/02/12 11:12:34;;;;;;;27.40;18.90;;;12.20;99.90;;;;;;5053887;28;20194;-65
2023/02/12 11:15:22;;;;;;;25.80;16.60;;;12.20;99.90;;;;;;5055295;28;20174;-65
2023/02/12 11:18:03;;;;;;;28.83;17.47;;;12.20;99.90;;;;;;5054923;28;20745;-65
2023/02/12 11:20:40;;;;;;;25.10;15.90;;;12.20;99.90;;;;;;5054578;28;20204;-64
2023/02/12 11:23:34;;;;;;;25.77;15.93;;;12.10;99.90;;;;;;5054900;28;20194;-65
2023/02/12 11:26:17;;;;;;;24.43;17.33;;;12.20;99.90;;;;;;5054737;28;20236;-65
2023/02/12 11:29:19;;;;;;;23.50;16.27;;;12.30;99.90;;;;;;5055058;28;20175;-65
2023/02/12 11:32:01;;;;;;;33.00;17.17;;;12.40;99.90;;;;;;5035109;28;20194;-65
2023/02/12 11:34:28;;;;;;;28.13;16.63;;;12.40;1.00;;;;;;5038863;28;20205;-65
2023/02/12 11:36:54;;;;;;;29.23;16.30;;;12.30;56.20;;;;;;5054971;28;20171;-65
2023/02/12 11:39:37;;;;;;;26.17;16.80;;;12.50;39.70;;;;;;5053020;28;20183;-65
2023/02/12 11:42:13;;;;;;;21.40;15.27;;;12.70;1.00;;;;;;5054751;28;20274;-65
2023/02/12 11:44:42;;;;;;;23.93;16.77;;;12.90;1.00;;;;;;5054417;28;20704;-65
2023/02/12 11:47:15;;;;;;;24.37;15.47;;;13.00;1.00;;;;;;5054608;28;20183;-65
2023/02/12 11:49:55;;;;;;;25.60;15.27;;;13.00;1.00;;;;;;5054103;28;20252;-65
2023/02/12 11:52:27;;;;;;;22.33;16.37;;;13.10;1.00;;;;;;5054845;28;20663;-65
2023/02/12 11:54:55;;;;;;;28.87;16.57;;;13.20;1.00;;;;;;5054047;28;20228;-65
2023/02/12 11:57:35;;;;;;;23.87;15.77;;;13.30;1.00;;;;;;5054515;28;20182;-65
2023/02/12 12:00:10;;;;;;;26.73;16.07;;;13.10;1.00;;;;;;5053190;28;20206;-65
2023/02/12 12:02:38;;;;;;;24.77;15.23;;;13.20;1.00;;;;;;5054243;28;20185;-65
2023/02/12 12:05:15;;;;;;;23.47;15.37;;;13.30;1.00;;;;;;5054071;28;20183;-65
2023/02/12 12:07:48;;;;;;;25.83;15.07;;;13.40;1.00;;;;;;5054343;28;20205;-65
2023/02/12 12:10:20;;;;;;;21.20;15.77;;;13.50;1.00;;;;;;5053705;28;20203;-65
2023/02/12 12:12:55;;;;;;;22.00;15.03;;;13.60;1.00;;;;;;5054011;28;20183;-65
2023/02/12 12:22:04;;;;;;;17.63;11.83;;;13.40;1.00;;;;;;5054101;28;20553;-65
2023/02/12 12:25:05;;;;;;;17.37;11.07;;;13.30;1.00;;;;;;5053705;28;20269;-65
2023/02/12 12:30:38;;;;;;;13.23;9.63;;;13.10;1.00;;;;;;5053307;28;20701;-65
2023/02/12 12:33:10;;;;;;;17.03;10.43;;;13.20;1.00;;;;;;5032528;28;20199;-65
2023/02/12 12:35:48;;;;;;;16.87;11.63;;;13.40;1.00;;;;;;5034791;28;20547;-64
2023/02/12 12:38:39;;;;;;;17.37;11.53;;;13.40;1.00;;;;;;5053682;28;20167;-65
2023/02/12 12:41:36;;;;;;;17.97;10.83;;;13.60;1.00;;;;;;5053031;28;20183;-65
2023/02/12 12:44:04;;;;;;;15.37;10.67;;;13.70;1.00;;;;;;5053446;28;20260;-65
2023/02/12 12:46:57;;;;;;;13.83;10.63;;;13.60;1.00;;;;;;5053298;28;20210;-65
2023/02/12 12:49:34;;;;;;;20.17;12.20;;;13.50;1.00;;;;;;5052876;28;20199;-63
2023/02/12 12:52:11;;;;;;;23.57;12.90;;;13.50;1.00;;;;;;5053279;28;20166;-63
2023/02/12 12:54:54;;;;;;;21.07;12.63;;;13.50;1.00;;;;;;5053062;28;20217;-64
2023/02/12 12:57:35;;;;;;;14.80;11.90;;;13.40;1.00;;;;;;5053286;28;20171;-64
2023/02/12 13:00:03;;;;;;;17.47;11.50;;;13.30;1.00;;;;;;5052044;28;20274;-64
2023/02/12 13:02:56;;;;;;;20.27;13.40;;;13.10;1.00;;;;;;5053356;28;20698;-64
2023/02/12 13:05:50;;;;;;;18.70;11.50;;;13.10;1.00;;;;;;5052938;28;20640;-64
2023/02/12 13:08:51;;;;;;;17.27;12.27;;;13.20;1.00;;;;;;5053283;28;20175;-64
2023/02/12 13:11:29;;;;;;;19.00;12.13;;;13.20;1.00;;;;;;5052460;28;20249;-64